createdAt,value
2018-03-30T00:00:54.825Z,5.60
2018-03-30T00:01:54.851Z,5.90
2018-03-30T00:02:54.878Z,6.40
2018-03-30T00:03:54.903Z,6.30
2018-03-30T00:04:54.929Z,5.90
2018-03-30T00:05:54.955Z,5.50
2018-03-30T00:06:54.981Z,5.90
2018-03-30T00:07:55.006Z,5.60
2018-03-30T00:08:55.033Z,5.80
2018-03-30T00:09:55.059Z,6.00
2018-03-30T00:10:55.084Z,5.10
2018-03-30T00:11:55.110Z,5.70
2018-03-30T00:12:55.135Z,5.30
2018-03-30T00:13:55.161Z,6.40
2018-03-30T00:14:55.192Z,5.70
2018-03-30T00:15:55.214Z,6.20
2018-03-30T00:16:55.238Z,6.30
2018-03-30T00:17:55.265Z,6.20
2018-03-30T00:18:55.292Z,5.80
2018-03-30T00:19:55.318Z,5.50
2018-03-30T00:20:55.343Z,6.20
2018-03-30T00:21:55.368Z,6.00
2018-03-30T00:22:55.395Z,5.70
2018-03-30T00:23:55.420Z,6.40
2018-03-30T00:24:55.445Z,6.50
2018-03-30T00:25:55.471Z,6.20
2018-03-30T00:26:55.545Z,6.20
2018-03-30T00:27:55.524Z,5.50
2018-03-30T00:28:55.549Z,6.30
2018-03-30T00:29:55.579Z,6.30
2018-03-30T00:30:55.601Z,5.90
2018-03-30T00:31:55.627Z,6.70
2018-03-30T00:32:55.654Z,6.00
2018-03-30T00:33:55.678Z,6.00
2018-03-30T00:34:55.704Z,5.30
2018-03-30T00:35:55.730Z,5.60
2018-03-30T00:36:55.753Z,5.70
2018-03-30T00:37:55.779Z,5.90
2018-03-30T00:38:55.806Z,6.10
2018-03-30T00:39:55.831Z,6.00
2018-03-30T00:40:55.856Z,6.10
2018-03-30T00:41:55.883Z,5.90
2018-03-30T00:42:55.907Z,6.20
2018-03-30T00:43:55.935Z,6.30
2018-03-30T00:44:55.960Z,6.50
2018-03-30T00:45:55.986Z,5.80
2018-03-30T00:46:56.016Z,5.70
2018-03-30T00:47:56.038Z,6.10
2018-03-30T00:48:56.064Z,6.00
2018-03-30T00:49:56.088Z,5.90
2018-03-30T00:50:56.114Z,5.90
2018-03-30T00:51:56.140Z,6.30
2018-03-30T00:52:56.164Z,6.20
2018-03-30T00:53:56.191Z,5.70
2018-03-30T00:54:56.217Z,5.70
2018-03-30T00:55:56.242Z,6.20
2018-03-30T00:56:56.272Z,5.90
2018-03-30T00:57:56.294Z,6.00
2018-03-30T00:58:56.319Z,5.90
2018-03-30T00:59:56.345Z,5.60
2018-03-30T01:00:56.369Z,5.20
2018-03-30T01:01:56.395Z,5.70
2018-03-30T01:02:56.422Z,5.30
2018-03-30T01:03:56.447Z,5.10
2018-03-30T01:04:56.471Z,5.40
2018-03-30T01:05:56.501Z,4.90
2018-03-30T01:06:56.522Z,5.90
2018-03-30T01:07:56.551Z,5.40
2018-03-30T01:08:56.575Z,5.40
2018-03-30T01:09:56.601Z,5.50
2018-03-30T01:10:56.631Z,5.00
2018-03-30T01:11:56.652Z,5.70
2018-03-30T01:12:56.677Z,6.10
2018-03-30T01:13:56.703Z,5.70
2018-03-30T01:14:56.727Z,5.60
2018-03-30T01:15:56.757Z,5.30
2018-03-30T01:16:56.779Z,5.70
2018-03-30T01:17:56.804Z,6.20
2018-03-30T01:18:56.830Z,6.40
2018-03-30T01:19:56.857Z,5.90
2018-03-30T01:20:56.881Z,5.30
2018-03-30T01:21:56.906Z,6.20
2018-03-30T01:22:56.934Z,6.00
2018-03-30T01:23:56.958Z,5.70
2018-03-30T01:24:56.981Z,5.70
2018-03-30T01:25:57.017Z,5.60
2018-03-30T01:26:57.034Z,5.60
2018-03-30T01:27:57.060Z,5.60
2018-03-30T01:28:57.083Z,5.20
2018-03-30T01:29:57.110Z,5.70
2018-03-30T01:30:57.135Z,5.40
2018-03-30T01:31:57.161Z,5.70
2018-03-30T01:32:57.186Z,4.90
2018-03-30T01:33:57.211Z,5.10
2018-03-30T01:34:57.237Z,5.00
2018-03-30T01:35:57.262Z,5.40
2018-03-30T01:36:57.287Z,5.20
2018-03-30T01:37:57.313Z,5.40
2018-03-30T01:38:57.338Z,4.80
2018-03-30T01:39:57.364Z,5.10
2018-03-30T01:40:57.389Z,5.30
2018-03-30T01:41:57.414Z,5.30
2018-03-30T01:42:57.440Z,5.60
2018-03-30T01:43:57.464Z,4.80
2018-03-30T01:44:57.490Z,5.20
2018-03-30T01:45:57.516Z,4.60
2018-03-30T01:46:57.541Z,5.10
2018-03-30T01:47:57.565Z,5.20
2018-03-30T01:48:57.591Z,5.00
2018-03-30T01:49:57.620Z,5.00
2018-03-30T01:50:57.642Z,5.30
2018-03-30T01:51:57.668Z,5.30
2018-03-30T01:52:57.692Z,5.10
2018-03-30T01:53:57.715Z,5.10
2018-03-30T01:54:57.743Z,5.00
2018-03-30T01:55:57.771Z,4.60
2018-03-30T01:56:57.793Z,4.70
2018-03-30T01:57:57.818Z,4.60
2018-03-30T01:58:57.866Z,5.20
2018-03-30T01:59:57.871Z,5.20
2018-03-30T02:00:57.895Z,4.80
2018-03-30T02:01:57.921Z,5.00
2018-03-30T02:02:57.947Z,4.90
2018-03-30T02:03:57.970Z,4.80
2018-03-30T02:04:57.994Z,4.20
2018-03-30T02:05:58.020Z,4.60
2018-03-30T02:06:58.046Z,4.60
2018-03-30T02:07:58.072Z,4.70
2018-03-30T02:08:58.096Z,4.60
2018-03-30T02:09:58.122Z,4.90
2018-03-30T02:10:58.152Z,4.90
2018-03-30T02:11:58.176Z,5.20
2018-03-30T02:12:58.198Z,4.80
2018-03-30T02:13:58.227Z,4.90
2018-03-30T02:14:58.248Z,4.90
2018-03-30T02:15:58.307Z,5.30
2018-03-30T02:16:58.296Z,5.20
2018-03-30T02:17:58.328Z,4.80
2018-03-30T02:18:58.348Z,4.70
2018-03-30T02:19:58.382Z,5.10
2018-03-30T02:20:58.398Z,4.30
2018-03-30T02:21:58.424Z,4.20
2018-03-30T02:22:58.448Z,4.30
2018-03-30T02:23:58.474Z,5.20
2018-03-30T02:24:58.499Z,5.20
2018-03-30T02:25:58.524Z,4.90
2018-03-30T02:26:58.551Z,4.80
2018-03-30T02:27:58.575Z,5.20
2018-03-30T02:28:58.600Z,4.70
2018-03-30T02:29:58.626Z,4.50
2018-03-30T02:30:58.652Z,5.10
2018-03-30T02:31:58.679Z,4.80
2018-03-30T02:32:58.702Z,4.40
2018-03-30T02:33:58.725Z,4.90
2018-03-30T02:34:58.752Z,4.70
2018-03-30T02:35:58.780Z,4.20
2018-03-30T02:36:58.811Z,4.70
2018-03-30T02:37:58.829Z,4.90
2018-03-30T02:38:58.852Z,4.90
2018-03-30T02:39:58.879Z,5.10
2018-03-30T02:40:58.904Z,4.90
2018-03-30T02:41:58.928Z,5.00
2018-03-30T02:42:58.954Z,5.00
2018-03-30T02:43:58.980Z,5.30
2018-03-30T02:44:59.004Z,5.90
2018-03-30T02:45:59.030Z,5.10
2018-03-30T02:46:59.054Z,5.10
2018-03-30T02:47:59.083Z,5.60
2018-03-30T02:48:59.105Z,5.60
2018-03-30T02:49:59.130Z,4.80
2018-03-30T02:50:59.156Z,5.30
2018-03-30T02:51:59.181Z,4.70
2018-03-30T02:52:59.205Z,5.00
2018-03-30T02:53:59.231Z,4.50
2018-03-30T02:54:59.256Z,4.90
2018-03-30T02:55:59.281Z,5.10
2018-03-30T02:56:59.316Z,4.50
2018-03-30T02:57:59.333Z,4.60
2018-03-30T02:58:59.357Z,4.40
2018-03-30T02:59:59.383Z,4.50
2018-03-30T03:00:59.406Z,5.10
2018-03-30T03:01:59.434Z,5.10
2018-03-30T03:02:59.457Z,4.60
2018-03-30T03:03:59.483Z,4.90
2018-03-30T03:04:59.507Z,4.80
2018-03-30T03:05:59.549Z,4.50
2018-03-30T03:06:59.559Z,4.90
2018-03-30T03:07:59.583Z,4.80
2018-03-30T03:08:59.607Z,5.00
2018-03-30T03:09:59.633Z,4.90
2018-03-30T03:10:59.658Z,5.10
2018-03-30T03:11:59.684Z,4.60
2018-03-30T03:12:59.707Z,4.40
2018-03-30T03:13:59.732Z,4.60
2018-03-30T03:14:59.759Z,4.70
2018-03-30T03:15:59.790Z,5.00
2018-03-30T03:16:59.806Z,5.20
2018-03-30T03:17:59.837Z,4.20
2018-03-30T03:18:59.858Z,4.40
2018-03-30T03:19:59.885Z,4.50
2018-03-30T03:20:59.909Z,4.40
2018-03-30T03:21:59.934Z,4.60
2018-03-30T03:22:59.960Z,4.50
2018-03-30T03:23:59.990Z,4.30
2018-03-30T03:25:00.013Z,4.50
2018-03-30T03:26:00.037Z,4.30
2018-03-30T03:27:00.061Z,4.30
2018-03-30T03:28:00.086Z,4.50
2018-03-30T03:29:00.110Z,4.70
2018-03-30T03:30:00.146Z,4.50
2018-03-30T03:31:00.162Z,4.40
2018-03-30T03:32:00.188Z,4.40
2018-03-30T03:33:00.211Z,4.70
2018-03-30T03:34:00.237Z,4.30
2018-03-30T03:35:00.262Z,4.00
2018-03-30T03:36:00.287Z,4.40
2018-03-30T03:37:00.311Z,4.40
2018-03-30T03:38:00.338Z,4.70
2018-03-30T03:39:00.362Z,4.50
2018-03-30T03:40:00.388Z,4.10
2018-03-30T03:41:00.423Z,4.20
2018-03-30T03:42:00.443Z,4.00
2018-03-30T03:43:00.464Z,3.80
2018-03-30T03:44:00.495Z,3.70
2018-03-30T03:45:00.514Z,4.20
2018-03-30T03:46:00.541Z,4.20
2018-03-30T03:47:00.564Z,4.20
2018-03-30T03:48:00.594Z,4.30
2018-03-30T03:49:00.614Z,4.60
2018-03-30T03:50:00.639Z,4.10
2018-03-30T03:51:00.665Z,4.50
2018-03-30T03:52:00.696Z,4.40
2018-03-30T03:53:00.715Z,4.40
2018-03-30T03:54:00.739Z,4.40
2018-03-30T03:55:00.765Z,4.90
2018-03-30T03:56:00.790Z,3.70
2018-03-30T03:57:00.816Z,4.80
2018-03-30T03:58:00.842Z,5.00
2018-03-30T03:59:00.865Z,4.30
2018-03-30T04:00:00.891Z,4.90
2018-03-30T04:01:00.916Z,4.90
2018-03-30T04:02:00.947Z,4.90
2018-03-30T04:03:00.968Z,4.90
2018-03-30T04:04:00.991Z,4.80
2018-03-30T04:05:01.017Z,4.10
2018-03-30T04:06:01.041Z,4.90
2018-03-30T04:07:01.067Z,4.90
2018-03-30T04:08:01.094Z,4.50
2018-03-30T04:09:01.116Z,4.50
2018-03-30T04:10:01.142Z,4.20
2018-03-30T04:11:01.169Z,5.00
2018-03-30T04:12:01.193Z,4.40
2018-03-30T04:13:01.219Z,4.60
2018-03-30T04:14:01.242Z,4.60
2018-03-30T04:15:01.267Z,4.80
2018-03-30T04:16:01.293Z,4.60
2018-03-30T04:17:01.318Z,4.80
2018-03-30T04:18:01.343Z,4.50
2018-03-30T04:19:01.369Z,4.50
2018-03-30T04:20:01.394Z,4.50
2018-03-30T04:21:01.418Z,4.50
2018-03-30T04:22:01.442Z,4.80
2018-03-30T04:23:01.468Z,4.90
2018-03-30T04:24:01.492Z,4.80
2018-03-30T04:25:01.518Z,5.50
2018-03-30T04:26:01.544Z,4.90
2018-03-30T04:27:01.575Z,4.90
2018-03-30T04:28:01.596Z,5.40
2018-03-30T04:29:01.617Z,5.00
2018-03-30T04:30:01.643Z,5.00
2018-03-30T04:31:01.667Z,5.10
2018-03-30T04:32:01.694Z,5.10
2018-03-30T04:33:01.717Z,5.50
2018-03-30T04:34:01.743Z,5.70
2018-03-30T04:35:01.768Z,5.00
2018-03-30T04:36:01.793Z,5.30
2018-03-30T04:37:01.817Z,5.20
2018-03-30T04:38:01.842Z,5.00
2018-03-30T04:39:01.868Z,4.60
2018-03-30T04:40:01.892Z,4.70
2018-03-30T04:41:01.917Z,5.50
2018-03-30T04:42:01.943Z,5.00
2018-03-30T04:43:01.969Z,5.20
2018-03-30T04:44:01.993Z,5.40
2018-03-30T04:45:02.017Z,5.50
2018-03-30T04:46:02.042Z,4.50
2018-03-30T04:47:02.067Z,5.10
2018-03-30T04:48:02.092Z,5.10
2018-03-30T04:49:02.118Z,4.90
2018-03-30T04:50:02.156Z,4.40
2018-03-30T04:51:02.169Z,4.70
2018-03-30T04:52:02.192Z,4.40
2018-03-30T04:53:02.218Z,5.10
2018-03-30T04:54:02.241Z,4.80
2018-03-30T04:55:02.267Z,5.50
2018-03-30T04:56:02.292Z,5.10
2018-03-30T04:57:02.316Z,5.20
2018-03-30T04:58:02.342Z,5.10
2018-03-30T04:59:02.367Z,5.30
2018-03-30T05:00:02.393Z,5.20
2018-03-30T05:01:02.416Z,5.60
2018-03-30T05:02:02.445Z,5.60
2018-03-30T05:03:02.466Z,5.70
2018-03-30T05:04:02.491Z,6.00
2018-03-30T05:05:02.515Z,6.60
2018-03-30T05:06:02.541Z,6.50
2018-03-30T05:07:02.565Z,6.10
2018-03-30T05:08:02.591Z,5.90
2018-03-30T05:09:02.615Z,5.80
2018-03-30T05:10:02.638Z,5.90
2018-03-30T05:11:02.665Z,6.60
2018-03-30T05:12:02.689Z,7.10
2018-03-30T05:13:02.713Z,8.00
2018-03-30T05:14:02.739Z,7.30
2018-03-30T05:15:02.767Z,7.80
2018-03-30T05:16:02.788Z,7.70
2018-03-30T05:17:02.813Z,7.60
2018-03-30T05:18:02.842Z,7.30
2018-03-30T05:19:02.862Z,7.10
2018-03-30T05:20:02.888Z,6.00
2018-03-30T05:21:02.912Z,6.40
2018-03-30T05:22:02.990Z,6.90
2018-03-30T05:23:02.963Z,6.60
2018-03-30T05:24:02.988Z,5.80
2018-03-30T05:25:03.012Z,6.00
2018-03-30T05:26:03.036Z,5.60
2018-03-30T05:27:03.062Z,6.40
2018-03-30T05:28:03.092Z,5.80
2018-03-30T05:29:03.111Z,6.60
2018-03-30T05:30:03.137Z,6.60
2018-03-30T05:31:03.162Z,6.20
2018-03-30T05:32:03.187Z,7.00
2018-03-30T05:33:03.211Z,6.60
2018-03-30T05:34:03.236Z,6.90
2018-03-30T05:35:03.259Z,6.80
2018-03-30T05:36:03.286Z,8.00
2018-03-30T05:37:03.310Z,8.20
2018-03-30T05:38:03.335Z,8.40
2018-03-30T05:39:03.362Z,7.50
2018-03-30T05:40:03.390Z,7.80
2018-03-30T05:41:03.410Z,7.00
2018-03-30T05:42:03.436Z,6.30
2018-03-30T05:43:03.460Z,6.30
2018-03-30T05:44:03.486Z,6.40
2018-03-30T05:45:03.514Z,6.20
2018-03-30T05:46:03.536Z,5.30
2018-03-30T05:47:03.562Z,5.80
2018-03-30T05:48:03.586Z,5.70
2018-03-30T05:49:03.612Z,6.20
2018-03-30T05:50:03.639Z,7.20
2018-03-30T05:51:03.660Z,7.90
2018-03-30T05:52:03.685Z,7.00
2018-03-30T05:53:03.710Z,7.40
2018-03-30T05:54:03.737Z,6.60
2018-03-30T05:55:03.763Z,6.50
2018-03-30T05:56:03.787Z,5.50
2018-03-30T05:57:03.812Z,6.20
2018-03-30T05:58:03.837Z,5.80
2018-03-30T05:59:03.862Z,5.60
2018-03-30T06:00:03.888Z,5.40
2018-03-30T06:01:03.913Z,5.40
2018-03-30T06:02:03.938Z,5.10
2018-03-30T06:03:03.964Z,6.10
2018-03-30T06:04:03.989Z,6.20
2018-03-30T06:05:04.014Z,6.00
2018-03-30T06:06:04.043Z,6.30
2018-03-30T06:07:04.064Z,6.20
2018-03-30T06:08:04.129Z,6.60
2018-03-30T06:09:04.115Z,6.10
2018-03-30T06:10:04.145Z,6.60
2018-03-30T06:11:04.166Z,6.30
2018-03-30T06:12:04.191Z,6.00
2018-03-30T06:13:04.216Z,6.90
2018-03-30T06:14:04.242Z,6.70
2018-03-30T06:15:04.269Z,7.30
2018-03-30T06:16:04.299Z,7.40
2018-03-30T06:17:04.318Z,7.10
2018-03-30T06:18:04.345Z,6.60
2018-03-30T06:19:04.405Z,6.70
2018-03-30T06:21:04.421Z,6.00
2018-03-30T06:22:04.447Z,6.50
2018-03-30T06:23:04.474Z,6.40
2018-03-30T06:24:04.502Z,6.50
2018-03-30T06:25:04.524Z,6.40
2018-03-30T06:26:04.550Z,5.30
2018-03-30T06:27:04.576Z,5.90
2018-03-30T06:28:04.602Z,5.70
2018-03-30T06:29:04.628Z,6.50
2018-03-30T06:30:04.654Z,5.90
2018-03-30T06:31:04.680Z,5.40
2018-03-30T06:32:04.707Z,6.10
2018-03-30T06:33:04.732Z,5.90
2018-03-30T06:34:04.758Z,5.90
2018-03-30T06:35:04.787Z,5.40
2018-03-30T06:36:04.810Z,5.60
2018-03-30T06:37:04.841Z,5.70
2018-03-30T06:38:04.862Z,5.20
2018-03-30T06:39:04.889Z,5.30
2018-03-30T06:40:04.914Z,5.30
2018-03-30T06:41:04.941Z,5.00
2018-03-30T06:42:04.968Z,5.60
2018-03-30T06:43:04.994Z,5.10
2018-03-30T06:44:05.025Z,4.80
2018-03-30T06:45:05.047Z,4.80
2018-03-30T06:46:05.074Z,5.40
2018-03-30T06:47:05.105Z,5.90
2018-03-30T06:48:05.128Z,5.90
2018-03-30T06:49:05.154Z,5.30
2018-03-30T06:50:05.186Z,5.70
2018-03-30T06:51:05.208Z,5.30
2018-03-30T06:52:05.235Z,5.80
2018-03-30T06:53:05.260Z,6.40
2018-03-30T06:54:05.287Z,6.50
2018-03-30T06:55:05.314Z,7.10
2018-03-30T06:56:05.342Z,6.90
2018-03-30T06:57:05.368Z,7.10
2018-03-30T06:58:05.394Z,6.90
2018-03-30T06:59:05.422Z,7.20
2018-03-30T07:00:05.449Z,6.70
2018-03-30T07:01:05.480Z,7.20
2018-03-30T07:02:05.507Z,6.10
2018-03-30T07:03:05.529Z,5.50
2018-03-30T07:04:05.557Z,5.40
2018-03-30T07:05:05.584Z,5.20
2018-03-30T07:06:05.611Z,6.50
2018-03-30T07:07:05.686Z,5.90
2018-03-30T07:08:05.665Z,6.20
2018-03-30T07:09:05.695Z,5.10
2018-03-30T07:10:05.719Z,9.40
2018-03-30T07:11:05.747Z,11.90
2018-03-30T07:12:05.776Z,11.10
2018-03-30T07:13:05.800Z,9.30
2018-03-30T07:14:05.828Z,7.50
2018-03-30T07:15:05.857Z,5.80
2018-03-30T07:16:05.942Z,5.00
2018-03-30T07:17:05.912Z,4.60
2018-03-30T07:18:05.940Z,4.70
2018-03-30T07:19:05.967Z,4.80
2018-03-30T07:20:05.995Z,4.50
2018-03-30T07:21:06.022Z,4.50
2018-03-30T07:22:06.051Z,5.40
2018-03-30T07:23:06.078Z,4.50
2018-03-30T07:24:06.106Z,5.00
2018-03-30T07:25:06.134Z,4.90
2018-03-30T07:26:06.162Z,5.10
2018-03-30T07:27:06.192Z,4.70
2018-03-30T07:28:06.219Z,4.60
2018-03-30T07:29:06.248Z,4.80
2018-03-30T07:30:06.277Z,5.20
2018-03-30T07:31:06.304Z,4.50
2018-03-30T07:32:06.334Z,5.00
2018-03-30T07:33:06.362Z,4.20
2018-03-30T07:34:06.442Z,4.40
2018-03-30T07:35:06.420Z,4.90
2018-03-30T07:36:06.448Z,4.90
2018-03-30T07:37:06.509Z,4.30
2018-03-30T07:38:06.508Z,4.50
2018-03-30T07:39:06.537Z,4.40
2018-03-30T07:40:06.565Z,4.40
2018-03-30T07:41:06.593Z,4.20
2018-03-30T07:42:06.623Z,4.50
2018-03-30T07:43:06.653Z,4.70
2018-03-30T07:44:06.682Z,3.90
2018-03-30T07:45:06.719Z,4.40
2018-03-30T07:46:06.742Z,4.20
2018-03-30T07:47:06.770Z,3.90
2018-03-30T07:48:06.801Z,4.40
2018-03-30T07:49:06.829Z,3.80
2018-03-30T07:50:06.860Z,4.00
2018-03-30T07:51:06.891Z,4.60
2018-03-30T07:52:06.966Z,4.50
2018-03-30T07:53:06.951Z,4.40
2018-03-30T07:54:06.982Z,3.80
2018-03-30T07:55:07.012Z,3.50
2018-03-30T07:56:07.042Z,4.40
2018-03-30T07:57:07.072Z,3.50
2018-03-30T07:58:07.104Z,3.20
2018-03-30T07:59:07.134Z,3.60
2018-03-30T08:00:07.166Z,3.30
2018-03-30T08:01:07.196Z,3.70
2018-03-30T08:02:07.226Z,3.40
2018-03-30T08:03:07.259Z,3.30
2018-03-30T08:04:07.289Z,3.50
2018-03-30T08:05:07.320Z,3.70
2018-03-30T08:06:07.353Z,3.20
2018-03-30T08:07:07.384Z,3.50
2018-03-30T08:08:07.416Z,3.00
2018-03-30T08:09:07.504Z,3.50
2018-03-30T08:10:07.477Z,3.70
2018-03-30T08:11:07.509Z,3.40
2018-03-30T08:12:07.542Z,3.70
2018-03-30T08:13:07.573Z,3.30
2018-03-30T08:14:07.605Z,3.00
2018-03-30T08:15:07.636Z,3.50
2018-03-30T08:16:07.669Z,3.00
2018-03-30T08:17:07.701Z,4.00
2018-03-30T08:18:07.734Z,3.30
2018-03-30T08:19:07.770Z,3.20
2018-03-30T08:20:07.798Z,3.10
2018-03-30T08:21:07.832Z,3.10
2018-03-30T08:22:07.860Z,3.10
2018-03-30T08:23:07.895Z,3.40
2018-03-30T08:24:07.928Z,3.30
2018-03-30T08:25:07.960Z,2.90
2018-03-30T08:26:07.993Z,2.90
2018-03-30T08:27:08.026Z,3.10
2018-03-30T08:28:08.060Z,3.00
2018-03-30T08:29:08.092Z,2.80
2018-03-30T08:30:08.125Z,2.70
2018-03-30T08:31:08.160Z,2.60
2018-03-30T08:32:08.193Z,2.30
2018-03-30T08:33:08.226Z,2.70
2018-03-30T08:34:08.265Z,2.70
2018-03-30T08:35:08.293Z,2.60
2018-03-30T08:36:08.328Z,2.60
2018-03-30T08:37:08.360Z,2.00
2018-03-30T08:38:08.396Z,2.40
2018-03-30T08:39:08.430Z,2.20
2018-03-30T08:40:08.463Z,1.90
2018-03-30T08:41:08.498Z,1.80
2018-03-30T08:42:08.533Z,1.50
2018-03-30T08:43:08.568Z,1.80
2018-03-30T08:44:08.602Z,1.80
2018-03-30T08:45:08.635Z,1.40
2018-03-30T08:46:08.671Z,1.50
2018-03-30T08:47:08.706Z,1.60
2018-03-30T08:48:08.741Z,1.90
2018-03-30T08:49:08.775Z,1.50
2018-03-30T08:50:08.811Z,1.70
2018-03-30T08:51:08.845Z,1.70
2018-03-30T08:52:08.881Z,1.60
2018-03-30T08:53:08.914Z,1.90
2018-03-30T08:54:08.954Z,1.90
2018-03-30T08:55:08.983Z,2.10
2018-03-30T08:56:09.020Z,2.20
2018-03-30T08:57:09.054Z,1.80
2018-03-30T08:58:09.089Z,1.80
2018-03-30T08:59:09.125Z,1.80
2018-03-30T09:00:09.160Z,1.70
2018-03-30T09:01:09.194Z,1.80
2018-03-30T09:02:09.280Z,1.70
2018-03-30T09:03:09.265Z,1.70
2018-03-30T09:04:09.299Z,2.00
2018-03-30T09:05:09.334Z,1.80
2018-03-30T09:06:09.368Z,1.90
2018-03-30T09:07:09.405Z,1.80
2018-03-30T09:08:09.440Z,1.60
2018-03-30T09:09:09.476Z,1.70
2018-03-30T09:10:09.512Z,1.60
2018-03-30T09:11:09.550Z,1.60
2018-03-30T09:12:09.586Z,1.60
2018-03-30T09:13:09.623Z,1.90
2018-03-30T09:14:09.666Z,2.00
2018-03-30T09:15:09.702Z,1.90
2018-03-30T09:16:09.738Z,1.40
2018-03-30T09:17:09.777Z,1.30
2018-03-30T09:18:09.817Z,1.70
2018-03-30T09:19:09.856Z,1.80
2018-03-30T09:20:09.896Z,1.70
2018-03-30T09:21:09.937Z,1.80
2018-03-30T09:22:09.978Z,2.20
2018-03-30T09:23:10.016Z,2.00
2018-03-30T09:24:10.061Z,2.60
2018-03-30T09:25:10.099Z,2.40
2018-03-30T09:26:10.142Z,2.60
2018-03-30T09:27:10.183Z,1.90
2018-03-30T09:28:10.225Z,2.60
2018-03-30T09:29:10.266Z,2.20
2018-03-30T09:30:10.309Z,2.10
2018-03-30T09:31:10.351Z,1.90
2018-03-30T09:32:10.396Z,2.00
2018-03-30T09:33:10.438Z,1.70
2018-03-30T09:34:10.480Z,1.70
2018-03-30T09:35:10.523Z,1.80
2018-03-30T09:36:10.566Z,1.80
2018-03-30T09:37:10.608Z,2.00
2018-03-30T09:38:10.652Z,2.20
2018-03-30T09:39:10.694Z,2.00
2018-03-30T09:40:10.738Z,1.90
2018-03-30T09:41:10.779Z,1.90
2018-03-30T09:42:10.823Z,1.90
2018-03-30T09:43:10.866Z,2.00
2018-03-30T09:44:10.910Z,2.30
2018-03-30T09:45:10.952Z,1.70
2018-03-30T09:46:11.000Z,1.80
2018-03-30T09:47:11.044Z,2.00
2018-03-30T09:48:11.085Z,1.90
2018-03-30T09:49:11.131Z,2.30
2018-03-30T09:50:11.174Z,1.90
2018-03-30T09:51:11.221Z,2.10
2018-03-30T09:52:11.267Z,1.80
2018-03-30T09:53:11.312Z,1.70
2018-03-30T09:54:11.357Z,1.70
2018-03-30T09:55:11.403Z,1.60
2018-03-30T09:56:11.450Z,1.90
2018-03-30T09:57:11.495Z,2.30
2018-03-30T09:58:11.540Z,2.00
2018-03-30T09:59:11.586Z,2.20
2018-03-30T10:00:11.632Z,2.00
2018-03-30T10:01:11.677Z,1.90
2018-03-30T10:02:11.720Z,1.90
2018-03-30T10:03:11.766Z,2.40
2018-03-30T10:04:11.811Z,1.90
2018-03-30T10:05:11.855Z,1.80
2018-03-30T10:06:11.899Z,2.00
2018-03-30T10:07:11.942Z,1.70
2018-03-30T10:08:11.993Z,2.00
2018-03-30T10:09:12.030Z,1.60
2018-03-30T10:10:12.071Z,2.10
2018-03-30T10:11:12.114Z,2.20
2018-03-30T10:12:12.157Z,1.70
2018-03-30T10:13:12.197Z,1.60
2018-03-30T10:14:12.239Z,2.10
2018-03-30T10:15:12.281Z,2.10
2018-03-30T10:16:12.321Z,2.00
2018-03-30T10:17:12.361Z,2.20
2018-03-30T10:18:12.402Z,2.50
2018-03-30T10:19:12.442Z,2.50
2018-03-30T10:20:12.483Z,2.70
2018-03-30T10:21:12.519Z,2.90
2018-03-30T10:22:12.560Z,2.70
2018-03-30T10:23:12.604Z,2.90
2018-03-30T10:24:12.638Z,2.80
2018-03-30T10:25:12.691Z,2.90
2018-03-30T10:26:12.714Z,3.00
2018-03-30T10:27:12.752Z,3.20
2018-03-30T10:28:12.791Z,2.70
2018-03-30T10:29:12.832Z,3.30
2018-03-30T10:30:12.866Z,3.10
2018-03-30T10:31:12.902Z,3.20
2018-03-30T10:32:12.941Z,3.30
2018-03-30T10:33:12.977Z,3.40
2018-03-30T10:34:13.014Z,3.30
2018-03-30T10:35:13.049Z,3.30
2018-03-30T10:36:13.087Z,3.70
2018-03-30T10:37:13.124Z,3.40
2018-03-30T10:38:13.159Z,3.30
2018-03-30T10:39:13.195Z,3.40
2018-03-30T10:40:13.230Z,3.60
2018-03-30T10:41:13.268Z,3.30
2018-03-30T10:42:13.302Z,3.50
2018-03-30T10:43:13.336Z,3.10
2018-03-30T10:44:13.372Z,3.60
2018-03-30T10:45:13.409Z,4.00
2018-03-30T10:46:13.443Z,3.70
2018-03-30T10:47:13.477Z,3.70
2018-03-30T10:48:13.514Z,3.40
2018-03-30T10:49:13.548Z,4.00
2018-03-30T10:50:13.584Z,3.70
2018-03-30T10:51:13.621Z,3.80
2018-03-30T10:52:13.653Z,3.50
2018-03-30T10:53:13.695Z,3.70
2018-03-30T10:54:13.721Z,4.00
2018-03-30T10:55:13.761Z,3.80
2018-03-30T10:56:13.792Z,3.70
2018-03-30T10:57:13.826Z,3.90
2018-03-30T10:58:13.859Z,3.40
2018-03-30T10:59:13.896Z,4.10
2018-03-30T11:00:13.929Z,3.60
2018-03-30T11:01:13.964Z,3.50
2018-03-30T11:02:13.997Z,4.20
2018-03-30T11:03:14.032Z,3.40
2018-03-30T11:04:14.066Z,4.10
2018-03-30T11:05:14.153Z,3.80
2018-03-30T11:06:14.134Z,4.30
2018-03-30T11:07:14.167Z,4.60
2018-03-30T11:08:14.200Z,4.20
2018-03-30T11:09:14.235Z,4.40
2018-03-30T11:10:14.269Z,4.10
2018-03-30T11:11:14.302Z,3.60
2018-03-30T11:12:14.336Z,3.40
2018-03-30T11:13:14.369Z,3.30
2018-03-30T11:14:14.403Z,3.50
2018-03-30T11:15:14.440Z,3.60
2018-03-30T11:16:14.471Z,3.90
2018-03-30T11:17:14.503Z,3.90
2018-03-30T11:18:14.537Z,3.90
2018-03-30T11:19:14.571Z,3.80
2018-03-30T11:20:14.605Z,3.30
2018-03-30T11:21:14.637Z,3.40
2018-03-30T11:22:14.672Z,4.10
2018-03-30T11:23:14.709Z,4.30
2018-03-30T11:24:14.740Z,4.10
2018-03-30T11:25:14.772Z,4.60
2018-03-30T11:26:14.805Z,4.50
2018-03-30T11:27:14.840Z,4.30
2018-03-30T11:28:14.873Z,4.10
2018-03-30T11:29:14.906Z,4.20
2018-03-30T11:30:14.941Z,4.20
2018-03-30T11:31:14.974Z,4.40
2018-03-30T11:32:15.014Z,3.80
2018-03-30T11:33:15.043Z,4.20
2018-03-30T11:34:15.076Z,4.10
2018-03-30T11:35:15.110Z,4.60
2018-03-30T11:36:15.143Z,4.40
2018-03-30T11:37:15.178Z,4.70
2018-03-30T11:38:15.215Z,4.40
2018-03-30T11:39:15.247Z,4.30
2018-03-30T11:40:15.281Z,4.90
2018-03-30T11:41:15.317Z,4.30
2018-03-30T11:42:15.348Z,4.70
2018-03-30T11:43:15.382Z,5.00
2018-03-30T11:44:15.418Z,4.30
2018-03-30T11:45:15.452Z,5.20
2018-03-30T11:46:15.487Z,4.20
2018-03-30T11:47:15.522Z,5.40
2018-03-30T11:48:15.557Z,4.40
2018-03-30T11:49:15.591Z,5.00
2018-03-30T11:50:15.628Z,4.70
2018-03-30T11:51:15.663Z,5.00
2018-03-30T11:52:15.698Z,5.00
2018-03-30T11:53:15.733Z,4.40
2018-03-30T11:54:15.769Z,5.10
2018-03-30T11:55:15.806Z,4.30
2018-03-30T11:56:15.844Z,4.40
2018-03-30T11:57:15.879Z,4.10
2018-03-30T11:58:15.917Z,4.50
2018-03-30T11:59:15.955Z,4.50
2018-03-30T12:00:15.992Z,4.40
2018-03-30T12:01:16.030Z,4.30
2018-03-30T12:02:16.067Z,4.10
2018-03-30T12:03:16.157Z,3.90
2018-03-30T12:04:16.147Z,3.80
2018-03-30T12:05:16.186Z,4.00
2018-03-30T12:06:16.225Z,4.30
2018-03-30T12:07:16.266Z,3.40
2018-03-30T12:08:16.306Z,4.00
2018-03-30T12:09:16.354Z,4.20
2018-03-30T12:10:16.388Z,4.00
2018-03-30T12:11:16.431Z,4.00
2018-03-30T12:12:16.473Z,3.90
2018-03-30T12:13:16.515Z,4.10
2018-03-30T12:14:16.559Z,4.10
2018-03-30T12:15:16.602Z,3.40
2018-03-30T12:16:16.647Z,3.70
2018-03-30T12:17:16.691Z,3.70
2018-03-30T12:18:16.744Z,3.90
2018-03-30T12:19:16.784Z,3.60
2018-03-30T12:20:16.841Z,4.40
2018-03-30T12:21:16.877Z,4.00
2018-03-30T12:22:16.925Z,3.60
2018-03-30T12:23:16.972Z,4.10
2018-03-30T12:24:17.019Z,3.50
2018-03-30T12:25:17.068Z,3.50
2018-03-30T12:26:17.118Z,3.50
2018-03-30T12:27:17.164Z,4.30
2018-03-30T12:28:17.212Z,4.20
2018-03-30T12:29:17.258Z,3.70
2018-03-30T12:30:17.307Z,3.80
2018-03-30T12:31:17.353Z,3.50
2018-03-30T12:32:17.401Z,4.30
2018-03-30T12:33:17.446Z,4.10
2018-03-30T12:34:17.495Z,4.30
2018-03-30T12:35:17.541Z,4.30
2018-03-30T12:36:17.589Z,3.90
2018-03-30T12:37:17.634Z,4.20
2018-03-30T12:38:17.681Z,4.20
2018-03-30T12:39:17.729Z,4.30
2018-03-30T12:40:17.777Z,4.00
2018-03-30T12:41:17.825Z,4.00
2018-03-30T12:42:17.871Z,3.60
2018-03-30T12:43:17.917Z,3.90
2018-03-30T12:44:17.966Z,3.70
2018-03-30T12:45:18.018Z,4.20
2018-03-30T12:46:18.081Z,4.30
2018-03-30T12:47:18.109Z,3.70
2018-03-30T12:48:18.158Z,3.90
2018-03-30T12:49:18.203Z,4.10
2018-03-30T12:50:18.255Z,3.60
2018-03-30T12:51:18.299Z,4.30
2018-03-30T12:52:18.346Z,4.00
2018-03-30T12:53:18.390Z,4.40
2018-03-30T12:54:18.438Z,3.90
2018-03-30T12:55:18.487Z,3.70
2018-03-30T12:56:18.529Z,4.30
2018-03-30T12:57:18.573Z,5.10
2018-03-30T12:58:18.621Z,5.70
2018-03-30T12:59:18.667Z,4.60
2018-03-30T13:00:18.712Z,5.30
2018-03-30T13:01:18.758Z,5.10
2018-03-30T13:02:18.803Z,4.50
2018-03-30T13:03:18.851Z,4.20
2018-03-30T13:04:18.890Z,3.90
2018-03-30T13:05:18.934Z,3.80
2018-03-30T13:06:18.978Z,4.00
2018-03-30T13:07:19.023Z,3.90
2018-03-30T13:08:19.067Z,4.00
2018-03-30T13:09:19.110Z,3.60
2018-03-30T13:10:19.155Z,4.60
2018-03-30T13:11:19.198Z,4.50
2018-03-30T13:12:19.241Z,4.90
2018-03-30T13:13:19.284Z,4.70
2018-03-30T13:14:19.356Z,4.60
2018-03-30T13:15:19.372Z,4.80
2018-03-30T13:16:19.412Z,4.80
2018-03-30T13:17:19.454Z,4.30
2018-03-30T13:18:19.495Z,5.40
2018-03-30T13:19:19.537Z,4.50
2018-03-30T13:20:19.578Z,4.90